sensor_id;sensor_type;location;lat;lon;timestamp;temperature;humidity
83660;SHT30;73632;50.808;3.422;2024-03-29T00:02:02;9.93;66.11
83660;SHT30;73632;50.808;3.422;2024-03-29T00:04:28;9.94;66.12
83660;SHT30;73632;50.808;3.422;2024-03-29T00:06:53;9.96;65.93
83660;SHT30;73632;50.808;3.422;2024-03-29T00:09:19;9.94;65.82
83660;SHT30;73632;50.808;3.422;2024-03-29T00:11:45;9.94;65.83
83660;SHT30;73632;50.808;3.422;2024-03-29T00:14:10;9.96;65.71
83660;SHT30;73632;50.808;3.422;2024-03-29T00:16:36;9.97;65.34
83660;SHT30;73632;50.808;3.422;2024-03-29T00:19:01;10.02;65.29
83660;SHT30;73632;50.808;3.422;2024-03-29T00:21:26;9.97;65.64
83660;SHT30;73632;50.808;3.422;2024-03-29T00:23:52;9.99;65.27
83660;SHT30;73632;50.808;3.422;2024-03-29T00:26:17;9.99;65.24
83660;SHT30;73632;50.808;3.422;2024-03-29T00:28:43;10.09;64.64
83660;SHT30;73632;50.808;3.422;2024-03-29T00:31:08;10.03;65.07
83660;SHT30;73632;50.808;3.422;2024-03-29T00:33:35;10.07;64.72
83660;SHT30;73632;50.808;3.422;2024-03-29T00:36:00;10.13;64.34
83660;SHT30;73632;50.808;3.422;2024-03-29T00:38:26;10.10;64.87
83660;SHT30;73632;50.808;3.422;2024-03-29T00:40:51;10.04;65.02
83660;SHT30;73632;50.808;3.422;2024-03-29T00:43:16;10.07;64.74
83660;SHT30;73632;50.808;3.422;2024-03-29T00:45:42;10.09;64.73
83660;SHT30;73632;50.808;3.422;2024-03-29T00:48:07;10.06;64.81
83660;SHT30;73632;50.808;3.422;2024-03-29T00:50:33;10.06;64.86
83660;SHT30;73632;50.808;3.422;2024-03-29T00:52:59;10.04;64.54
83660;SHT30;73632;50.808;3.422;2024-03-29T00:55:25;10.07;64.38
83660;SHT30;73632;50.808;3.422;2024-03-29T00:57:50;10.07;64.31
83660;SHT30;73632;50.808;3.422;2024-03-29T01:00:16;10.03;65.21
83660;SHT30;73632;50.808;3.422;2024-03-29T01:02:41;10.02;65.38
83660;SHT30;73632;50.808;3.422;2024-03-29T01:05:07;10.00;64.87
83660;SHT30;73632;50.808;3.422;2024-03-29T01:07:33;10.06;64.63
83660;SHT30;73632;50.808;3.422;2024-03-29T01:09:58;10.06;64.97
83660;SHT30;73632;50.808;3.422;2024-03-29T01:12:24;10.02;65.01
83660;SHT30;73632;50.808;3.422;2024-03-29T01:14:49;9.97;65.43
83660;SHT30;73632;50.808;3.422;2024-03-29T01:17:14;9.97;65.43
83660;SHT30;73632;50.808;3.422;2024-03-29T01:19:40;9.90;65.47
83660;SHT30;73632;50.808;3.422;2024-03-29T01:22:05;9.93;65.60
83660;SHT30;73632;50.808;3.422;2024-03-29T01:24:31;9.86;66.15
83660;SHT30;73632;50.808;3.422;2024-03-29T01:26:56;9.82;65.63
83660;SHT30;73632;50.808;3.422;2024-03-29T01:29:21;9.89;65.55
83660;SHT30;73632;50.808;3.422;2024-03-29T01:31:47;9.86;65.96
83660;SHT30;73632;50.808;3.422;2024-03-29T01:34:12;9.80;65.99
83660;SHT30;73632;50.808;3.422;2024-03-29T01:36:38;9.80;65.98
83660;SHT30;73632;50.808;3.422;2024-03-29T01:39:03;9.85;65.36
83660;SHT30;73632;50.808;3.422;2024-03-29T01:41:29;9.85;66.01
83660;SHT30;73632;50.808;3.422;2024-03-29T01:43:55;9.80;65.85
83660;SHT30;73632;50.808;3.422;2024-03-29T01:46:22;9.82;65.59
83660;SHT30;73632;50.808;3.422;2024-03-29T01:48:49;9.83;65.72
83660;SHT30;73632;50.808;3.422;2024-03-29T01:51:16;9.83;65.27
83660;SHT30;73632;50.808;3.422;2024-03-29T01:53:42;9.79;65.32
83660;SHT30;73632;50.808;3.422;2024-03-29T01:56:08;9.78;65.53
83660;SHT30;73632;50.808;3.422;2024-03-29T01:58:34;9.73;65.47
83660;SHT30;73632;50.808;3.422;2024-03-29T02:01:00;9.73;65.86
83660;SHT30;73632;50.808;3.422;2024-03-29T02:03:26;9.72;66.09
83660;SHT30;73632;50.808;3.422;2024-03-29T02:05:52;9.63;66.38
83660;SHT30;73632;50.808;3.422;2024-03-29T02:08:18;9.62;66.70
83660;SHT30;73632;50.808;3.422;2024-03-29T02:10:45;9.63;66.79
83660;SHT30;73632;50.808;3.422;2024-03-29T02:13:12;9.56;67.58
83660;SHT30;73632;50.808;3.422;2024-03-29T02:15:39;9.50;67.72
83660;SHT30;73632;50.808;3.422;2024-03-29T02:18:05;9.49;68.24
83660;SHT30;73632;50.808;3.422;2024-03-29T02:20:31;9.43;69.05
83660;SHT30;73632;50.808;3.422;2024-03-29T02:23:10;9.32;70.08
83660;SHT30;73632;50.808;3.422;2024-03-29T02:25:36;9.27;71.13
83660;SHT30;73632;50.808;3.422;2024-03-29T02:28:03;9.11;72.89
83660;SHT30;73632;50.808;3.422;2024-03-29T02:30:29;8.84;75.25
83660;SHT30;73632;50.808;3.422;2024-03-29T02:33:00;8.60;77.23
83660;SHT30;73632;50.808;3.422;2024-03-29T02:35:26;8.44;78.13
83660;SHT30;73632;50.808;3.422;2024-03-29T02:37:52;8.29;79.20
83660;SHT30;73632;50.808;3.422;2024-03-29T02:40:19;8.17;79.97
83660;SHT30;73632;50.808;3.422;2024-03-29T02:42:44;8.02;80.76
83660;SHT30;73632;50.808;3.422;2024-03-29T02:45:10;7.99;80.89
83660;SHT30;73632;50.808;3.422;2024-03-29T02:47:35;7.98;81.17
83660;SHT30;73632;50.808;3.422;2024-03-29T02:50:01;7.90;81.60
83660;SHT30;73632;50.808;3.422;2024-03-29T02:52:26;7.88;81.76
83660;SHT30;73632;50.808;3.422;2024-03-29T02:54:52;7.85;81.97
83660;SHT30;73632;50.808;3.422;2024-03-29T02:57:17;7.88;82.09
83660;SHT30;73632;50.808;3.422;2024-03-29T02:59:43;7.79;82.53
83660;SHT30;73632;50.808;3.422;2024-03-29T03:02:08;7.85;81.84
83660;SHT30;73632;50.808;3.422;2024-03-29T03:04:34;7.86;81.71
83660;SHT30;73632;50.808;3.422;2024-03-29T03:06:59;7.88;82.18
83660;SHT30;73632;50.808;3.422;2024-03-29T03:09:43;7.85;82.08
83660;SHT30;73632;50.808;3.422;2024-03-29T03:12:29;7.88;82.46
83660;SHT30;73632;50.808;3.422;2024-03-29T03:14:55;7.86;82.20
83660;SHT30;73632;50.808;3.422;2024-03-29T03:17:20;7.89;81.95
83660;SHT30;73632;50.808;3.422;2024-03-29T03:19:46;7.88;82.04
83660;SHT30;73632;50.808;3.422;2024-03-29T03:22:11;7.86;82.38
83660;SHT30;73632;50.808;3.422;2024-03-29T03:24:37;7.90;82.70
83660;SHT30;73632;50.808;3.422;2024-03-29T03:27:02;7.83;82.92
83660;SHT30;73632;50.808;3.422;2024-03-29T03:29:28;7.86;83.08
83660;SHT30;73632;50.808;3.422;2024-03-29T03:31:54;7.79;83.44
83660;SHT30;73632;50.808;3.422;2024-03-29T03:34:19;7.79;83.67
83660;SHT30;73632;50.808;3.422;2024-03-29T03:36:45;7.77;84.14
83660;SHT30;73632;50.808;3.422;2024-03-29T03:39:10;7.74;84.64
83660;SHT30;73632;50.808;3.422;2024-03-29T03:41:36;7.68;84.81
83660;SHT30;73632;50.808;3.422;2024-03-29T03:44:01;7.67;85.35
83660;SHT30;73632;50.808;3.422;2024-03-29T03:46:26;7.69;85.45
83660;SHT30;73632;50.808;3.422;2024-03-29T03:48:52;7.71;85.75
83660;SHT30;73632;50.808;3.422;2024-03-29T03:51:17;7.64;85.62
83660;SHT30;73632;50.808;3.422;2024-03-29T03:53:43;7.64;85.65
83660;SHT30;73632;50.808;3.422;2024-03-29T03:56:08;7.62;85.74
83660;SHT30;73632;50.808;3.422;2024-03-29T03:58:33;7.58;85.50
83660;SHT30;73632;50.808;3.422;2024-03-29T04:01:04;7.55;85.68
83660;SHT30;73632;50.808;3.422;2024-03-29T04:03:29;7.54;85.45
83660;SHT30;73632;50.808;3.422;2024-03-29T04:05:55;7.58;85.53
83660;SHT30;73632;50.808;3.422;2024-03-29T04:08:20;7.54;85.43
83660;SHT30;73632;50.808;3.422;2024-03-29T04:10:46;7.54;85.07
83660;SHT30;73632;50.808;3.422;2024-03-29T04:13:11;7.52;85.32
83660;SHT30;73632;50.808;3.422;2024-03-29T04:15:37;7.58;85.13
83660;SHT30;73632;50.808;3.422;2024-03-29T04:18:02;7.61;84.94
83660;SHT30;73632;50.808;3.422;2024-03-29T04:20:27;7.54;85.02
83660;SHT30;73632;50.808;3.422;2024-03-29T04:22:53;7.51;84.93
83660;SHT30;73632;50.808;3.422;2024-03-29T04:25:18;7.62;84.62
83660;SHT30;73632;50.808;3.422;2024-03-29T04:27:44;7.64;84.05
83660;SHT30;73632;50.808;3.422;2024-03-29T04:30:10;7.64;83.84
83660;SHT30;73632;50.808;3.422;2024-03-29T04:32:35;7.58;84.10
83660;SHT30;73632;50.808;3.422;2024-03-29T04:35:00;7.55;83.78
83660;SHT30;73632;50.808;3.422;2024-03-29T04:37:26;7.59;83.79
83660;SHT30;73632;50.808;3.422;2024-03-29T04:39:51;7.57;84.12
83660;SHT30;73632;50.808;3.422;2024-03-29T04:42:17;7.58;83.71
83660;SHT30;73632;50.808;3.422;2024-03-29T04:44:42;7.58;84.11
83660;SHT30;73632;50.808;3.422;2024-03-29T04:47:08;7.55;83.91
83660;SHT30;73632;50.808;3.422;2024-03-29T04:49:33;7.52;84.26
83660;SHT30;73632;50.808;3.422;2024-03-29T04:52:00;7.54;83.95
83660;SHT30;73632;50.808;3.422;2024-03-29T04:54:26;7.57;83.90
83660;SHT30;73632;50.808;3.422;2024-03-29T04:56:53;7.62;83.79
83660;SHT30;73632;50.808;3.422;2024-03-29T04:59:18;7.62;83.47
83660;SHT30;73632;50.808;3.422;2024-03-29T05:01:46;7.61;84.03
83660;SHT30;73632;50.808;3.422;2024-03-29T05:04:16;7.58;84.26
83660;SHT30;73632;50.808;3.422;2024-03-29T05:06:44;7.61;84.43
83660;SHT30;73632;50.808;3.422;2024-03-29T05:09:09;7.59;84.31
83660;SHT30;73632;50.808;3.422;2024-03-29T05:11:37;7.57;84.28
83660;SHT30;73632;50.808;3.422;2024-03-29T05:14:02;7.62;84.07
83660;SHT30;73632;50.808;3.422;2024-03-29T05:16:29;7.57;84.80
83660;SHT30;73632;50.808;3.422;2024-03-29T05:18:55;7.54;85.32
83660;SHT30;73632;50.808;3.422;2024-03-29T05:21:20;7.57;85.54
83660;SHT30;73632;50.808;3.422;2024-03-29T05:23:46;7.57;85.43
83660;SHT30;73632;50.808;3.422;2024-03-29T05:26:11;7.59;85.53
83660;SHT30;73632;50.808;3.422;2024-03-29T05:28:36;7.57;86.00
83660;SHT30;73632;50.808;3.422;2024-03-29T05:31:11;7.59;85.80
83660;SHT30;73632;50.808;3.422;2024-03-29T05:33:38;7.58;85.96
83660;SHT30;73632;50.808;3.422;2024-03-29T05:36:04;7.61;85.98
83660;SHT30;73632;50.808;3.422;2024-03-29T05:38:32;7.61;85.98
83660;SHT30;73632;50.808;3.422;2024-03-29T05:40:57;7.64;86.17
83660;SHT30;73632;50.808;3.422;2024-03-29T05:43:23;7.64;86.09
83660;SHT30;73632;50.808;3.422;2024-03-29T05:45:52;7.69;85.79
83660;SHT30;73632;50.808;3.422;2024-03-29T05:48:17;7.64;86.26
83660;SHT30;73632;50.808;3.422;2024-03-29T05:50:44;7.69;85.85
83660;SHT30;73632;50.808;3.422;2024-03-29T05:53:09;7.65;86.02
83660;SHT30;73632;50.808;3.422;2024-03-29T05:55:35;7.74;86.29
83660;SHT30;73632;50.808;3.422;2024-03-29T05:58:00;7.81;85.69
83660;SHT30;73632;50.808;3.422;2024-03-29T06:00:26;7.85;85.36
83660;SHT30;73632;50.808;3.422;2024-03-29T06:02:52;7.83;85.39
83660;SHT30;73632;50.808;3.422;2024-03-29T06:05:18;7.86;85.48
83660;SHT30;73632;50.808;3.422;2024-03-29T06:07:43;7.83;85.59
83660;SHT30;73632;50.808;3.422;2024-03-29T06:10:09;7.92;85.15
83660;SHT30;73632;50.808;3.422;2024-03-29T06:12:35;7.83;85.51
83660;SHT30;73632;50.808;3.422;2024-03-29T06:15:04;7.82;85.75
83660;SHT30;73632;50.808;3.422;2024-03-29T06:17:48;7.83;85.58
83660;SHT30;73632;50.808;3.422;2024-03-29T06:20:14;7.93;85.40
83660;SHT30;73632;50.808;3.422;2024-03-29T06:22:39;8.02;85.25
83660;SHT30;73632;50.808;3.422;2024-03-29T06:25:05;7.99;85.17
83660;SHT30;73632;50.808;3.422;2024-03-29T06:27:34;7.98;85.71
83660;SHT30;73632;50.808;3.422;2024-03-29T06:30:01;8.12;85.29
83660;SHT30;73632;50.808;3.422;2024-03-29T06:32:27;8.22;84.99
83660;SHT30;73632;50.808;3.422;2024-03-29T06:34:53;8.16;85.21
83660;SHT30;73632;50.808;3.422;2024-03-29T06:37:18;8.17;85.32
83660;SHT30;73632;50.808;3.422;2024-03-29T06:39:47;8.13;84.99
83660;SHT30;73632;50.808;3.422;2024-03-29T06:42:13;8.06;85.28
83660;SHT30;73632;50.808;3.422;2024-03-29T06:44:39;8.12;85.12
83660;SHT30;73632;50.808;3.422;2024-03-29T06:47:04;8.25;84.77
83660;SHT30;73632;50.808;3.422;2024-03-29T06:49:30;8.22;85.06
83660;SHT30;73632;50.808;3.422;2024-03-29T06:51:57;8.16;85.16
83660;SHT30;73632;50.808;3.422;2024-03-29T06:54:24;8.16;84.67
83660;SHT30;73632;50.808;3.422;2024-03-29T06:56:52;8.13;84.88
83660;SHT30;73632;50.808;3.422;2024-03-29T06:59:18;8.23;84.67
83660;SHT30;73632;50.808;3.422;2024-03-29T07:01:44;8.28;84.51
83660;SHT30;73632;50.808;3.422;2024-03-29T07:04:09;8.26;84.42
83660;SHT30;73632;50.808;3.422;2024-03-29T07:06:35;8.39;84.31
83660;SHT30;73632;50.808;3.422;2024-03-29T07:09:02;8.47;84.36
83660;SHT30;73632;50.808;3.422;2024-03-29T07:11:28;8.54;83.42
83660;SHT30;73632;50.808;3.422;2024-03-29T07:13:54;8.71;83.20
83660;SHT30;73632;50.808;3.422;2024-03-29T07:16:19;8.64;83.37
83660;SHT30;73632;50.808;3.422;2024-03-29T07:18:45;8.81;82.97
83660;SHT30;73632;50.808;3.422;2024-03-29T07:21:10;8.85;82.67
83660;SHT30;73632;50.808;3.422;2024-03-29T07:23:36;8.89;82.95
83660;SHT30;73632;50.808;3.422;2024-03-29T07:26:03;8.91;82.56
83660;SHT30;73632;50.808;3.422;2024-03-29T07:28:30;9.07;82.68
83660;SHT30;73632;50.808;3.422;2024-03-29T07:30:56;9.18;81.96
83660;SHT30;73632;50.808;3.422;2024-03-29T07:33:23;9.19;81.98
83660;SHT30;73632;50.808;3.422;2024-03-29T07:35:52;9.24;82.04
83660;SHT30;73632;50.808;3.422;2024-03-29T07:38:18;9.28;82.30
83660;SHT30;73632;50.808;3.422;2024-03-29T07:40:49;9.39;81.51
83660;SHT30;73632;50.808;3.422;2024-03-29T07:43:15;9.21;81.97
83660;SHT30;73632;50.808;3.422;2024-03-29T07:45:41;9.21;81.89
83660;SHT30;73632;50.808;3.422;2024-03-29T07:48:11;9.22;82.29
83660;SHT30;73632;50.808;3.422;2024-03-29T07:50:37;9.39;81.84
83660;SHT30;73632;50.808;3.422;2024-03-29T07:53:02;9.31;81.80
83660;SHT30;73632;50.808;3.422;2024-03-29T07:55:28;9.32;81.58
83660;SHT30;73632;50.808;3.422;2024-03-29T07:57:53;9.35;82.32
83660;SHT30;73632;50.808;3.422;2024-03-29T08:00:19;9.36;81.55
83660;SHT30;73632;50.808;3.422;2024-03-29T08:02:44;9.40;81.21
83660;SHT30;73632;50.808;3.422;2024-03-29T08:05:10;9.36;81.65
83660;SHT30;73632;50.808;3.422;2024-03-29T08:07:35;9.35;81.87
83660;SHT30;73632;50.808;3.422;2024-03-29T08:10:00;9.39;81.72
83660;SHT30;73632;50.808;3.422;2024-03-29T08:12:26;9.40;81.64
83660;SHT30;73632;50.808;3.422;2024-03-29T08:14:51;9.48;81.81
83660;SHT30;73632;50.808;3.422;2024-03-29T08:17:17;9.50;81.85
83660;SHT30;73632;50.808;3.422;2024-03-29T08:19:42;9.70;80.77
83660;SHT30;73632;50.808;3.422;2024-03-29T08:22:08;9.72;80.32
83660;SHT30;73632;50.808;3.422;2024-03-29T08:24:36;9.65;80.77
83660;SHT30;73632;50.808;3.422;2024-03-29T08:27:02;9.63;80.76
83660;SHT30;73632;50.808;3.422;2024-03-29T08:29:28;9.69;80.52
83660;SHT30;73632;50.808;3.422;2024-03-29T08:31:53;9.75;80.65
83660;SHT30;73632;50.808;3.422;2024-03-29T08:34:18;9.70;80.05
83660;SHT30;73632;50.808;3.422;2024-03-29T08:36:44;9.76;80.41
83660;SHT30;73632;50.808;3.422;2024-03-29T08:39:09;9.92;80.47
83660;SHT30;73632;50.808;3.422;2024-03-29T08:41:36;10.17;79.50
83660;SHT30;73632;50.808;3.422;2024-03-29T08:44:02;10.14;79.00
83660;SHT30;73632;50.808;3.422;2024-03-29T08:46:28;10.20;79.11
83660;SHT30;73632;50.808;3.422;2024-03-29T08:48:53;10.14;79.34
83660;SHT30;73632;50.808;3.422;2024-03-29T08:51:20;10.14;79.35
83660;SHT30;73632;50.808;3.422;2024-03-29T08:53:46;10.12;79.64
83660;SHT30;73632;50.808;3.422;2024-03-29T08:56:12;10.12;79.60
83660;SHT30;73632;50.808;3.422;2024-03-29T08:58:38;10.16;78.22
83660;SHT30;73632;50.808;3.422;2024-03-29T09:01:04;10.12;78.79
83660;SHT30;73632;50.808;3.422;2024-03-29T09:03:30;10.24;79.04
83660;SHT30;73632;50.808;3.422;2024-03-29T09:05:55;10.26;78.66
83660;SHT30;73632;50.808;3.422;2024-03-29T09:08:21;10.23;78.32
83660;SHT30;73632;50.808;3.422;2024-03-29T09:10:46;10.74;77.15
83660;SHT30;73632;50.808;3.422;2024-03-29T09:13:12;11.56;74.28
83660;SHT30;73632;50.808;3.422;2024-03-29T09:15:38;11.63;73.95
83660;SHT30;73632;50.808;3.422;2024-03-29T09:18:03;12.69;70.74
83660;SHT30;73632;50.808;3.422;2024-03-29T09:20:39;13.13;69.17
83660;SHT30;73632;50.808;3.422;2024-03-29T09:23:04;12.78;69.19
83660;SHT30;73632;50.808;3.422;2024-03-29T09:25:30;12.26;72.14
83660;SHT30;73632;50.808;3.422;2024-03-29T09:27:57;12.89;69.58
83660;SHT30;73632;50.808;3.422;2024-03-29T09:30:23;12.87;68.64
83660;SHT30;73632;50.808;3.422;2024-03-29T09:32:49;12.92;69.32
83660;SHT30;73632;50.808;3.422;2024-03-29T09:35:17;12.47;69.90
83660;SHT30;73632;50.808;3.422;2024-03-29T09:37:43;12.31;71.09
83660;SHT30;73632;50.808;3.422;2024-03-29T09:40:11;13.11;69.02
83660;SHT30;73632;50.808;3.422;2024-03-29T09:42:38;13.13;68.02
83660;SHT30;73632;50.808;3.422;2024-03-29T09:45:05;13.69;66.93
83660;SHT30;73632;50.808;3.422;2024-03-29T09:47:31;13.13;66.83
83660;SHT30;73632;50.808;3.422;2024-03-29T09:49:59;13.16;67.63
83660;SHT30;73632;50.808;3.422;2024-03-29T09:52:27;13.50;67.53
83660;SHT30;73632;50.808;3.422;2024-03-29T09:54:54;14.08;66.25
83660;SHT30;73632;50.808;3.422;2024-03-29T09:57:21;13.76;65.28
83660;SHT30;73632;50.808;3.422;2024-03-29T09:59:46;14.34;62.73
83660;SHT30;73632;50.808;3.422;2024-03-29T10:02:17;14.24;63.26
83660;SHT30;73632;50.808;3.422;2024-03-29T10:04:45;15.80;59.55
83660;SHT30;73632;50.808;3.422;2024-03-29T10:07:11;16.45;57.34
83660;SHT30;73632;50.808;3.422;2024-03-29T10:09:38;16.25;58.53
83660;SHT30;73632;50.808;3.422;2024-03-29T10:12:04;16.32;57.15
83660;SHT30;73632;50.808;3.422;2024-03-29T10:14:31;15.16;60.38
83660;SHT30;73632;50.808;3.422;2024-03-29T10:16:59;15.58;59.71
83660;SHT30;73632;50.808;3.422;2024-03-29T10:19:24;14.81;60.35
83660;SHT30;73632;50.808;3.422;2024-03-29T10:21:50;14.83;60.88
83660;SHT30;73632;50.808;3.422;2024-03-29T10:24:16;14.73;60.88
83660;SHT30;73632;50.808;3.422;2024-03-29T10:26:45;14.08;60.92
83660;SHT30;73632;50.808;3.422;2024-03-29T10:29:11;13.93;63.16
83660;SHT30;73632;50.808;3.422;2024-03-29T10:31:37;14.28;63.08
83660;SHT30;73632;50.808;3.422;2024-03-29T10:34:05;14.34;63.89
83660;SHT30;73632;50.808;3.422;2024-03-29T10:36:32;13.77;63.91
83660;SHT30;73632;50.808;3.422;2024-03-29T10:39:10;13.43;64.65
83660;SHT30;73632;50.808;3.422;2024-03-29T10:41:40;13.38;65.33
83660;SHT30;73632;50.808;3.422;2024-03-29T10:44:10;13.39;65.65
83660;SHT30;73632;50.808;3.422;2024-03-29T10:46:40;13.46;65.25
83660;SHT30;73632;50.808;3.422;2024-03-29T10:49:10;13.67;64.73
83660;SHT30;73632;50.808;3.422;2024-03-29T10:51:40;13.56;63.52
83660;SHT30;73632;50.808;3.422;2024-03-29T10:54:10;13.76;63.60
83660;SHT30;73632;50.808;3.422;2024-03-29T10:56:37;14.41;62.89
83660;SHT30;73632;50.808;3.422;2024-03-29T11:01:39;14.00;63.11
83660;SHT30;73632;50.808;3.422;2024-03-29T11:04:13;13.91;63.47
83660;SHT30;73632;50.808;3.422;2024-03-29T11:06:40;13.73;64.50
83660;SHT30;73632;50.808;3.422;2024-03-29T11:09:10;13.62;64.32
83660;SHT30;73632;50.808;3.422;2024-03-29T11:11:38;13.35;65.98
83660;SHT30;73632;50.808;3.422;2024-03-29T11:14:10;13.35;66.53
83660;SHT30;73632;50.808;3.422;2024-03-29T11:16:39;13.46;64.91
83660;SHT30;73632;50.808;3.422;2024-03-29T11:19:06;13.57;64.24
83660;SHT30;73632;50.808;3.422;2024-03-29T11:21:32;13.44;65.30
83660;SHT30;73632;50.808;3.422;2024-03-29T11:23:58;13.69;65.20
83660;SHT30;73632;50.808;3.422;2024-03-29T11:26:29;13.88;64.17
83660;SHT30;73632;50.808;3.422;2024-03-29T11:28:54;13.91;65.04
83660;SHT30;73632;50.808;3.422;2024-03-29T11:31:23;13.88;64.02
83660;SHT30;73632;50.808;3.422;2024-03-29T11:33:49;14.13;64.88
83660;SHT30;73632;50.808;3.422;2024-03-29T11:36:24;14.41;62.48
83660;SHT30;73632;50.808;3.422;2024-03-29T11:38:56;14.48;62.63
83660;SHT30;73632;50.808;3.422;2024-03-29T11:41:27;14.62;62.17
83660;SHT30;73632;50.808;3.422;2024-03-29T11:43:56;14.73;61.03
83660;SHT30;73632;50.808;3.422;2024-03-29T11:46:22;14.93;61.00
83660;SHT30;73632;50.808;3.422;2024-03-29T11:48:48;15.05;59.96
83660;SHT30;73632;50.808;3.422;2024-03-29T11:51:19;14.95;60.07
83660;SHT30;73632;50.808;3.422;2024-03-29T11:53:47;14.55;60.07
83660;SHT30;73632;50.808;3.422;2024-03-29T11:56:13;14.34;61.87
83660;SHT30;73632;50.808;3.422;2024-03-29T11:58:39;14.35;60.77
83660;SHT30;73632;50.808;3.422;2024-03-29T12:01:05;14.32;61.04
83660;SHT30;73632;50.808;3.422;2024-03-29T12:03:31;14.39;60.72
83660;SHT30;73632;50.808;3.422;2024-03-29T12:05:59;14.46;60.00
83660;SHT30;73632;50.808;3.422;2024-03-29T12:08:31;14.46;59.90
83660;SHT30;73632;50.808;3.422;2024-03-29T12:11:00;14.18;59.36
83660;SHT30;73632;50.808;3.422;2024-03-29T12:13:26;14.49;60.14
83660;SHT30;73632;50.808;3.422;2024-03-29T12:15:52;14.55;59.92
83660;SHT30;73632;50.808;3.422;2024-03-29T12:18:23;14.49;59.79
83660;SHT30;73632;50.808;3.422;2024-03-29T12:20:50;14.48;60.22
83660;SHT30;73632;50.808;3.422;2024-03-29T12:23:20;14.25;59.83
83660;SHT30;73632;50.808;3.422;2024-03-29T12:25:47;14.51;60.56
83660;SHT30;73632;50.808;3.422;2024-03-29T12:28:13;14.72;60.83
83660;SHT30;73632;50.808;3.422;2024-03-29T12:30:44;14.35;59.49
83660;SHT30;73632;50.808;3.422;2024-03-29T12:33:19;14.37;60.30
83660;SHT30;73632;50.808;3.422;2024-03-29T12:35:50;14.42;61.13
83660;SHT30;73632;50.808;3.422;2024-03-29T12:38:18;14.27;61.05
83660;SHT30;73632;50.808;3.422;2024-03-29T12:40:50;14.22;61.25
83660;SHT30;73632;50.808;3.422;2024-03-29T12:43:20;14.16;60.97
83660;SHT30;73632;50.808;3.422;2024-03-29T12:45:46;14.35;62.20
83660;SHT30;73632;50.808;3.422;2024-03-29T12:48:14;14.52;61.02
83660;SHT30;73632;50.808;3.422;2024-03-29T12:50:43;14.31;60.31
83660;SHT30;73632;50.808;3.422;2024-03-29T12:53:10;14.42;62.01
83660;SHT30;73632;50.808;3.422;2024-03-29T12:55:37;14.48;60.36
83660;SHT30;73632;50.808;3.422;2024-03-29T12:58:05;14.29;60.72
83660;SHT30;73632;50.808;3.422;2024-03-29T13:00:33;14.29;60.27
83660;SHT30;73632;50.808;3.422;2024-03-29T13:02:59;14.32;61.70
83660;SHT30;73632;50.808;3.422;2024-03-29T13:05:25;14.42;61.21
83660;SHT30;73632;50.808;3.422;2024-03-29T13:07:50;14.34;60.38
83660;SHT30;73632;50.808;3.422;2024-03-29T13:10:16;14.27;60.55
83660;SHT30;73632;50.808;3.422;2024-03-29T13:12:46;14.16;61.84
83660;SHT30;73632;50.808;3.422;2024-03-29T13:17:41;14.24;61.46
83660;SHT30;73632;50.808;3.422;2024-03-29T13:20:07;14.13;61.79
83660;SHT30;73632;50.808;3.422;2024-03-29T13:22:34;14.07;62.36
83660;SHT30;73632;50.808;3.422;2024-03-29T13:24:59;14.00;62.60
83660;SHT30;73632;50.808;3.422;2024-03-29T13:27:24;14.10;63.13
83660;SHT30;73632;50.808;3.422;2024-03-29T13:29:50;14.08;63.03
83660;SHT30;73632;50.808;3.422;2024-03-29T13:32:15;14.01;62.31
83660;SHT30;73632;50.808;3.422;2024-03-29T13:34:41;13.97;62.16
83660;SHT30;73632;50.808;3.422;2024-03-29T13:37:06;14.08;61.38
83660;SHT30;73632;50.808;3.422;2024-03-29T13:39:31;14.13;61.75
83660;SHT30;73632;50.808;3.422;2024-03-29T13:41:57;14.28;61.20
83660;SHT30;73632;50.808;3.422;2024-03-29T13:44:23;14.35;62.27
83660;SHT30;73632;50.808;3.422;2024-03-29T13:46:48;14.28;60.92
83660;SHT30;73632;50.808;3.422;2024-03-29T13:49:13;14.17;61.70
83660;SHT30;73632;50.808;3.422;2024-03-29T13:51:39;14.08;61.69
83660;SHT30;73632;50.808;3.422;2024-03-29T13:54:04;14.13;61.00
83660;SHT30;73632;50.808;3.422;2024-03-29T13:56:30;14.24;61.00
83660;SHT30;73632;50.808;3.422;2024-03-29T13:58:56;14.28;61.16
83660;SHT30;73632;50.808;3.422;2024-03-29T14:01:21;14.44;61.64
83660;SHT30;73632;50.808;3.422;2024-03-29T14:03:46;14.54;59.83
83660;SHT30;73632;50.808;3.422;2024-03-29T14:06:12;14.29;59.68
83660;SHT30;73632;50.808;3.422;2024-03-29T14:08:37;14.20;60.17
83660;SHT30;73632;50.808;3.422;2024-03-29T14:11:03;14.25;60.80
83660;SHT30;73632;50.808;3.422;2024-03-29T14:13:28;14.42;60.93
83660;SHT30;73632;50.808;3.422;2024-03-29T14:15:54;14.59;60.13
83660;SHT30;73632;50.808;3.422;2024-03-29T14:18:20;14.52;60.95
83660;SHT30;73632;50.808;3.422;2024-03-29T14:20:46;14.61;59.93
83660;SHT30;73632;50.808;3.422;2024-03-29T14:23:11;14.69;59.21
83660;SHT30;73632;50.808;3.422;2024-03-29T14:25:40;14.78;58.83
83660;SHT30;73632;50.808;3.422;2024-03-29T14:28:05;14.79;59.46
83660;SHT30;73632;50.808;3.422;2024-03-29T14:30:31;14.75;59.17
83660;SHT30;73632;50.808;3.422;2024-03-29T14:32:56;14.54;59.83
83660;SHT30;73632;50.808;3.422;2024-03-29T14:35:22;14.52;59.71
83660;SHT30;73632;50.808;3.422;2024-03-29T14:37:48;14.64;60.16
83660;SHT30;73632;50.808;3.422;2024-03-29T14:40:14;14.67;60.60
83660;SHT30;73632;50.808;3.422;2024-03-29T14:42:42;14.49;60.40
83660;SHT30;73632;50.808;3.422;2024-03-29T14:45:08;14.32;61.16
83660;SHT30;73632;50.808;3.422;2024-03-29T14:47:37;14.42;61.49
83660;SHT30;73632;50.808;3.422;2024-03-29T14:50:03;14.61;61.04
83660;SHT30;73632;50.808;3.422;2024-03-29T14:52:30;14.73;60.67
83660;SHT30;73632;50.808;3.422;2024-03-29T14:54:56;14.76;60.64
83660;SHT30;73632;50.808;3.422;2024-03-29T14:57:22;14.83;59.50
83660;SHT30;73632;50.808;3.422;2024-03-29T14:59:50;14.79;60.29
83660;SHT30;73632;50.808;3.422;2024-03-29T15:02:16;14.82;60.80
83660;SHT30;73632;50.808;3.422;2024-03-29T15:04:41;14.81;59.78
83660;SHT30;73632;50.808;3.422;2024-03-29T15:07:07;14.69;60.88
83660;SHT30;73632;50.808;3.422;2024-03-29T15:09:33;14.61;61.13
83660;SHT30;73632;50.808;3.422;2024-03-29T15:12:00;14.71;61.87
83660;SHT30;73632;50.808;3.422;2024-03-29T15:14:25;14.73;61.17
83660;SHT30;73632;50.808;3.422;2024-03-29T15:16:51;14.69;59.91
83660;SHT30;73632;50.808;3.422;2024-03-29T15:19:16;14.52;60.12
83660;SHT30;73632;50.808;3.422;2024-03-29T15:21:42;14.39;59.47
83660;SHT30;73632;50.808;3.422;2024-03-29T15:24:09;14.37;60.84
83660;SHT30;73632;50.808;3.422;2024-03-29T15:26:35;14.37;60.90
83660;SHT30;73632;50.808;3.422;2024-03-29T15:29:03;14.35;60.94
83660;SHT30;73632;50.808;3.422;2024-03-29T15:31:36;14.31;61.17
83660;SHT30;73632;50.808;3.422;2024-03-29T15:34:02;14.29;61.60
83660;SHT30;73632;50.808;3.422;2024-03-29T15:36:31;14.31;61.44
83660;SHT30;73632;50.808;3.422;2024-03-29T15:38:57;14.25;61.36